Time;durP1;ratioP1;P1;durP2;ratioP2;P2;SDS_P1;SDS_P2;PMS_P1;PMS_P2;Temp;Humidity;BMP_temperature;BMP_pressure;BME280_temperature;BME280_humidity;BME280_pressure;Samples;Min_cycle;Max_cycle;Signal;HPM_P1;HPM_P2
2021/03/06 00:00:41;;;;;;;22.57;20.13;;;-3.30;99.90;;;;;;5043499;28;20469;-70
2021/03/06 00:03:08;;;;;;;22.97;21.17;;;-3.50;99.90;;;;;;5038750;28;20459;-70
2021/03/06 00:05:34;;;;;;;22.40;20.60;;;-3.50;99.90;;;;;;5037630;28;20461;-70
2021/03/06 00:08:00;;;;;;;22.50;20.40;;;-3.40;99.90;;;;;;5039353;28;20484;-70
2021/03/06 00:10:27;;;;;;;22.67;20.67;;;-3.40;99.90;;;;;;5032315;28;20468;-70
2021/03/06 00:12:53;;;;;;;23.80;21.43;;;-3.50;99.90;;;;;;5039146;28;20491;-71
2021/03/06 00:15:23;;;;;;;23.60;21.27;;;-3.50;99.90;;;;;;5045385;28;20460;-71
2021/03/06 00:17:51;;;;;;;23.57;21.30;;;-3.50;99.90;;;;;;5038292;28;20471;-71
2021/03/06 00:20:18;;;;;;;23.07;20.13;;;-3.50;99.90;;;;;;5039612;28;20495;-71
2021/03/06 00:22:45;;;;;;;23.33;21.33;;;-3.50;99.90;;;;;;5040047;28;20998;-70
2021/03/06 00:25:16;;;;;;;22.60;20.30;;;-3.50;99.90;;;;;;5041867;28;20459;-70
2021/03/06 00:27:42;;;;;;;23.07;21.10;;;-3.50;99.90;;;;;;5038080;28;20921;-71
2021/03/06 00:30:10;;;;;;;23.17;21.07;;;-3.70;99.90;;;;;;5036234;28;20473;-69
2021/03/06 00:32:37;;;;;;;22.30;20.63;;;-3.80;99.90;;;;;;5039319;28;20511;-71
2021/03/06 00:35:07;;;;;;;21.77;19.97;;;-3.90;99.90;;;;;;5037262;28;20467;-69
2021/03/06 00:37:35;;;;;;;22.07;20.13;;;-3.90;99.90;;;;;;5037612;28;21304;-70
2021/03/06 00:40:01;;;;;;;22.07;20.30;;;-3.80;99.90;;;;;;5041818;28;20851;-69
2021/03/06 00:42:28;;;;;;;23.30;21.23;;;-3.80;99.90;;;;;;5033644;28;20527;-70
2021/03/06 00:44:55;;;;;;;23.60;21.23;;;-3.80;99.90;;;;;;5044525;28;20934;-71
2021/03/06 00:47:21;;;;;;;22.20;20.40;;;-3.80;99.90;;;;;;5043220;28;20483;-71
2021/03/06 00:49:49;;;;;;;23.43;21.33;;;-3.70;99.90;;;;;;5042438;28;20525;-72
2021/03/06 00:52:15;;;;;;;23.30;20.80;;;-3.70;99.90;;;;;;5040106;28;21181;-69
2021/03/06 00:54:42;;;;;;;28.93;20.60;;;-3.70;99.90;;;;;;5036882;28;20463;-70
2021/03/06 00:57:09;;;;;;;22.30;20.23;;;-3.70;99.90;;;;;;5041590;28;22956;-70
2021/03/06 00:59:35;;;;;;;24.80;20.80;;;-3.80;99.90;;;;;;5046949;28;20862;-69
2021/03/06 01:02:01;;;;;;;21.33;19.50;;;-3.70;99.90;;;;;;5049386;28;20451;-70
2021/03/06 01:04:28;;;;;;;22.20;20.27;;;-3.80;99.90;;;;;;5041433;28;20526;-71
2021/03/06 01:06:56;;;;;;;22.03;20.13;;;-3.70;99.90;;;;;;5042355;28;20465;-71
2021/03/06 01:09:22;;;;;;;21.30;19.60;;;-3.80;99.90;;;;;;5043567;28;20468;-71
2021/03/06 01:11:49;;;;;;;20.83;18.83;;;-3.80;99.90;;;;;;5043019;28;20982;-71
2021/03/06 01:14:15;;;;;;;21.77;20.10;;;-3.90;99.90;;;;;;5043880;28;20463;-70
2021/03/06 01:16:41;;;;;;;22.70;20.50;;;-3.90;99.90;;;;;;5041072;28;20460;-72
2021/03/06 01:19:08;;;;;;;22.53;20.80;;;-3.90;99.90;;;;;;5044675;28;20483;-71
2021/03/06 01:21:34;;;;;;;22.73;20.73;;;-3.90;99.90;;;;;;5042056;28;20506;-71
2021/03/06 01:24:03;;;;;;;21.77;19.67;;;-3.80;99.90;;;;;;5043133;28;20552;-72
2021/03/06 01:26:29;;;;;;;21.67;19.90;;;-3.80;99.90;;;;;;5048358;28;20456;-69
2021/03/06 01:28:57;;;;;;;22.67;20.27;;;-3.80;99.90;;;;;;5038604;28;20498;-70
2021/03/06 01:31:23;;;;;;;21.73;19.93;;;-3.70;99.90;;;;;;5039339;28;20970;-71
2021/03/06 01:33:50;;;;;;;22.47;19.07;;;-3.70;99.90;;;;;;5039217;28;20465;-71
2021/03/06 01:36:17;;;;;;;21.83;19.93;;;-3.70;99.90;;;;;;5042200;28;20460;-70
2021/03/06 01:38:43;;;;;;;20.80;19.20;;;-3.80;99.90;;;;;;5040609;28;20461;-70
2021/03/06 01:41:11;;;;;;;22.27;20.30;;;-3.80;99.90;;;;;;5041344;28;20521;-72
2021/03/06 01:43:38;;;;;;;22.27;20.37;;;-3.90;99.90;;;;;;5042422;28;20747;-70
2021/03/06 01:46:05;;;;;;;20.37;18.63;;;-4.00;99.90;;;;;;5045031;28;20467;-70
2021/03/06 01:48:31;;;;;;;22.77;20.50;;;-4.10;99.90;;;;;;5041478;28;20496;-71
2021/03/06 01:50:58;;;;;;;22.43;20.37;;;-4.20;99.90;;;;;;5038938;28;20501;-70
2021/03/06 01:53:25;;;;;;;21.87;20.10;;;-4.10;99.90;;;;;;5029170;28;20483;-70
2021/03/06 01:55:53;;;;;;;29.13;19.73;;;-4.20;99.90;;;;;;5041907;28;20464;-70
2021/03/06 01:58:21;;;;;;;22.17;20.37;;;-4.30;99.90;;;;;;5034012;28;20476;-71
2021/03/06 02:00:49;;;;;;;21.87;20.20;;;-4.30;99.90;;;;;;5036511;28;20474;-72
2021/03/06 02:03:15;;;;;;;22.63;20.77;;;-4.40;99.90;;;;;;5041692;28;20459;-70
2021/03/06 02:05:43;;;;;;;22.50;20.20;;;-4.30;99.90;;;;;;5045125;28;20463;-71
2021/03/06 02:08:10;;;;;;;21.27;19.67;;;-4.30;99.90;;;;;;5039636;28;20527;-71
2021/03/06 02:10:39;;;;;;;20.03;18.53;;;-4.40;99.90;;;;;;5037251;28;20471;-69
2021/03/06 02:13:18;;;;;;;21.60;20.00;;;-4.30;99.90;;;;;;5038947;28;20485;-71
2021/03/06 02:15:54;;;;;;;21.83;19.97;;;-4.40;99.90;;;;;;5044446;28;20474;-71
2021/03/06 02:18:26;;;;;;;21.80;19.90;;;-4.40;99.90;;;;;;5043061;28;21220;-70
2021/03/06 02:20:59;;;;;;;23.10;21.07;;;-4.50;99.90;;;;;;5041737;28;21018;-72
2021/03/06 02:24:00;;;;;;;23.00;21.20;;;-4.50;99.90;;;;;;5039918;28;20557;-68
2021/03/06 02:26:43;;;;;;;24.57;22.50;;;-4.50;99.90;;;;;;5040609;28;20467;-70
2021/03/06 02:29:39;;;;;;;22.63;20.77;;;-4.50;99.90;;;;;;5038695;28;20990;-70
2021/03/06 02:32:16;;;;;;;22.53;20.70;;;-4.50;99.90;;;;;;5009074;28;20914;-71
2021/03/06 02:34:47;;;;;;;24.30;21.97;;;-4.50;99.90;;;;;;5037947;28;20453;-71
2021/03/06 02:37:16;;;;;;;23.13;21.20;;;-4.60;99.90;;;;;;5045428;28;20461;-70
2021/03/06 02:39:46;;;;;;;24.50;21.87;;;-4.60;99.90;;;;;;5042494;28;20483;-71
2021/03/06 02:42:16;;;;;;;21.70;19.93;;;-4.70;99.90;;;;;;5039065;28;20461;-70
2021/03/06 02:44:46;;;;;;;23.33;20.97;;;-4.70;99.90;;;;;;5039202;28;20489;-71
2021/03/06 02:47:13;;;;;;;21.87;19.67;;;-4.60;99.90;;;;;;5043106;28;20513;-72
2021/03/06 02:49:44;;;;;;;24.13;22.03;;;-4.60;99.90;;;;;;5044619;28;20491;-70
2021/03/06 02:52:11;;;;;;;22.77;20.67;;;-4.50;99.90;;;;;;5040661;28;20466;-71
2021/03/06 02:54:39;;;;;;;22.80;20.80;;;-4.50;99.90;;;;;;5039987;28;20852;-72
2021/03/06 02:57:06;;;;;;;23.07;21.23;;;-4.50;99.90;;;;;;5040122;28;21038;-70
2021/03/06 03:00:02;;;;;;;23.17;21.37;;;-4.40;99.90;;;;;;5040178;28;20465;-70
2021/03/06 03:02:36;;;;;;;22.97;20.70;;;-4.40;99.90;;;;;;5042152;28;20681;-71
2021/03/06 03:05:12;;;;;;;21.87;20.13;;;-4.50;99.90;;;;;;5039774;28;20456;-70
2021/03/06 03:07:49;;;;;;;23.43;20.90;;;-4.50;99.90;;;;;;5037347;28;20550;-71
2021/03/06 03:10:17;;;;;;;21.37;19.43;;;-4.50;99.90;;;;;;5035418;28;20872;-71
2021/03/06 03:12:49;;;;;;;23.47;21.67;;;-4.40;99.90;;;;;;5041407;28;20512;-70
2021/03/06 03:15:19;;;;;;;22.63;20.47;;;-4.40;99.90;;;;;;5036933;28;20960;-71
2021/03/06 03:17:48;;;;;;;22.23;20.20;;;-4.40;99.90;;;;;;5038546;28;20465;-70
2021/03/06 03:20:24;;;;;;;23.80;21.43;;;-4.50;99.90;;;;;;5045826;28;20495;-70
2021/03/06 03:22:54;;;;;;;23.43;20.93;;;-4.50;99.90;;;;;;5040451;28;20463;-71
2021/03/06 03:25:22;;;;;;;24.43;22.00;;;-4.50;99.90;;;;;;5036498;28;21085;-71
2021/03/06 03:27:51;;;;;;;32.07;20.70;;;-4.50;99.90;;;;;;5036481;28;20478;-71
2021/03/06 03:30:22;;;;;;;22.83;21.10;;;-4.60;99.90;;;;;;5042741;28;20475;-71
2021/03/06 03:32:51;;;;;;;24.13;22.00;;;-4.60;99.90;;;;;;5038649;28;20962;-71
2021/03/06 03:35:21;;;;;;;22.97;21.10;;;-4.60;99.90;;;;;;5040857;28;20465;-70
2021/03/06 03:37:49;;;;;;;23.37;20.67;;;-4.60;99.90;;;;;;5035952;28;20475;-71
2021/03/06 03:40:18;;;;;;;23.60;21.10;;;-4.60;99.90;;;;;;5040749;28;20472;-73
2021/03/06 03:42:46;;;;;;;22.40;20.50;;;-4.60;99.90;;;;;;5037156;28;20457;-69
2021/03/06 03:45:16;;;;;;;24.53;22.00;;;-4.60;99.90;;;;;;5043460;28;20979;-71
2021/03/06 03:47:46;;;;;;;23.07;21.27;;;-4.70;99.90;;;;;;5046321;28;20479;-71
2021/03/06 03:50:16;;;;;;;23.77;20.70;;;-4.70;99.90;;;;;;5035866;28;20465;-70
2021/03/06 03:52:44;;;;;;;24.10;22.00;;;-4.70;99.90;;;;;;5038352;28;20829;-71
2021/03/06 03:55:13;;;;;;;23.53;21.20;;;-4.60;99.90;;;;;;5037165;28;20461;-69
2021/03/06 03:57:40;;;;;;;22.03;20.10;;;-4.60;99.90;;;;;;5040739;28;20464;-71
2021/03/06 04:00:08;;;;;;;22.83;20.73;;;-4.50;99.90;;;;;;5041277;28;20464;-69
2021/03/06 04:02:35;;;;;;;22.87;20.80;;;-4.50;99.90;;;;;;5040746;28;20469;-70
2021/03/06 04:05:03;;;;;;;23.13;21.10;;;-4.50;99.90;;;;;;5042025;28;21020;-71
2021/03/06 04:07:39;;;;;;;23.60;21.50;;;-4.50;99.90;;;;;;5035499;28;20482;-69
2021/03/06 04:10:07;;;;;;;26.57;21.20;;;-4.50;99.90;;;;;;5039307;28;20459;-71
2021/03/06 04:12:33;;;;;;;24.03;22.07;;;-4.40;99.90;;;;;;5040925;28;20483;-70
2021/03/06 04:15:00;;;;;;;23.73;21.63;;;-4.40;99.90;;;;;;5039179;28;20488;-69
2021/03/06 04:17:26;;;;;;;22.53;20.80;;;-4.40;99.90;;;;;;5042840;28;20451;-69
2021/03/06 04:19:52;;;;;;;24.63;22.37;;;-4.40;99.90;;;;;;5045241;28;20479;-69
2021/03/06 04:22:20;;;;;;;21.73;19.90;;;-4.30;99.90;;;;;;5042846;28;20817;-71
2021/03/06 04:24:48;;;;;;;22.80;20.60;;;-4.40;99.90;;;;;;5041014;28;20885;-71
2021/03/06 04:27:15;;;;;;;22.10;20.20;;;-4.40;99.90;;;;;;5044646;28;20457;-71
2021/03/06 04:29:41;;;;;;;24.57;22.20;;;-4.50;99.90;;;;;;5044178;28;20456;-70
2021/03/06 04:32:08;;;;;;;23.20;21.20;;;-4.60;99.90;;;;;;5043994;28;20463;-69
2021/03/06 04:34:35;;;;;;;22.07;20.00;;;-4.70;99.90;;;;;;5039526;28;20457;-69
2021/03/06 04:37:01;;;;;;;23.17;21.03;;;-4.60;99.90;;;;;;5045181;28;20817;-70
2021/03/06 04:39:30;;;;;;;23.63;21.60;;;-4.60;99.90;;;;;;5039427;28;20462;-69
2021/03/06 04:41:56;;;;;;;22.70;20.90;;;-4.60;99.90;;;;;;5041607;28;20459;-69
2021/03/06 04:44:24;;;;;;;22.93;21.03;;;-4.70;99.90;;;;;;5044344;28;20561;-70
2021/03/06 04:46:51;;;;;;;23.33;21.47;;;-4.60;99.90;;;;;;5045244;28;20531;-71
2021/03/06 04:49:17;;;;;;;23.30;21.00;;;-4.60;99.90;;;;;;5040778;28;20488;-70
2021/03/06 04:51:43;;;;;;;22.87;20.73;;;-4.60;99.90;;;;;;5041773;28;20471;-71
2021/03/06 04:54:11;;;;;;;22.60;20.90;;;-4.60;99.90;;;;;;5045676;28;20983;-71
2021/03/06 04:56:38;;;;;;;23.50;21.47;;;-4.60;99.90;;;;;;5044059;28;20471;-70
2021/03/06 04:59:06;;;;;;;23.43;21.17;;;-4.60;99.90;;;;;;5044409;28;20574;-71
2021/03/06 05:01:33;;;;;;;22.63;20.30;;;-4.60;99.90;;;;;;5046443;28;20470;-69
2021/03/06 05:04:00;;;;;;;24.30;21.57;;;-4.70;99.90;;;;;;5042988;28;20557;-71
2021/03/06 05:06:26;;;;;;;25.20;21.40;;;-4.70;99.90;;;;;;5041608;28;20495;-70
2021/03/06 05:08:53;;;;;;;23.93;21.43;;;-4.80;99.90;;;;;;5041788;28;20499;-71
2021/03/06 05:11:19;;;;;;;22.53;20.60;;;-4.80;99.90;;;;;;5045597;28;20489;-70
2021/03/06 05:13:46;;;;;;;23.63;21.47;;;-4.70;99.90;;;;;;5043929;28;20835;-70
2021/03/06 05:16:12;;;;;;;23.07;21.20;;;-4.70;99.90;;;;;;5038904;28;20453;-70
2021/03/06 05:18:42;;;;;;;24.53;22.07;;;-4.70;99.90;;;;;;5041784;28;20519;-70
2021/03/06 05:21:09;;;;;;;24.03;21.83;;;-4.80;99.90;;;;;;5043078;28;20856;-71
2021/03/06 05:23:35;;;;;;;24.70;22.27;;;-4.80;99.90;;;;;;5043023;28;20895;-70
2021/03/06 05:26:02;;;;;;;22.93;20.30;;;-4.80;99.90;;;;;;5040645;28;20861;-71
2021/03/06 05:28:28;;;;;;;23.07;20.73;;;-4.90;99.90;;;;;;5039570;28;20491;-71
2021/03/06 05:30:56;;;;;;;26.50;22.47;;;-4.90;99.90;;;;;;5044340;28;20517;-70
2021/03/06 05:33:23;;;;;;;22.83;20.60;;;-4.90;99.90;;;;;;5042637;28;20482;-68
2021/03/06 05:35:50;;;;;;;21.50;19.80;;;-4.90;99.90;;;;;;5042531;28;20466;-71
2021/03/06 05:38:16;;;;;;;25.00;22.60;;;-5.00;99.90;;;;;;5044450;28;20469;-71
2021/03/06 05:40:44;;;;;;;26.20;22.73;;;-4.90;99.90;;;;;;5038306;28;21145;-70
2021/03/06 05:43:11;;;;;;;25.43;23.10;;;-4.90;99.90;;;;;;5038173;28;20459;-69
2021/03/06 05:45:37;;;;;;;24.73;22.27;;;-4.80;99.90;;;;;;5045013;28;20855;-70
2021/03/06 05:48:05;;;;;;;23.47;21.03;;;-4.80;99.90;;;;;;5036358;28;20539;-70
2021/03/06 05:50:32;;;;;;;23.87;21.50;;;-4.90;99.90;;;;;;5038424;28;20478;-71
2021/03/06 05:53:00;;;;;;;23.67;21.23;;;-5.00;99.90;;;;;;5042911;28;20461;-70
2021/03/06 05:55:28;;;;;;;23.60;21.53;;;-5.00;99.90;;;;;;5039967;28;20834;-70
2021/03/06 05:57:55;;;;;;;23.57;21.43;;;-4.90;99.90;;;;;;5038894;28;20465;-70
2021/03/06 06:00:23;;;;;;;22.83;20.73;;;-4.90;99.90;;;;;;5038971;28;20460;-69
2021/03/06 06:02:54;;;;;;;23.60;21.40;;;-4.90;99.90;;;;;;5045132;28;20841;-71
2021/03/06 06:05:21;;;;;;;23.93;21.70;;;-4.90;99.90;;;;;;5046331;28;20824;-69
2021/03/06 06:07:49;;;;;;;25.17;21.70;;;-5.00;99.90;;;;;;5037165;28;20529;-71
2021/03/06 06:10:16;;;;;;;24.17;21.80;;;-5.00;99.90;;;;;;5042908;28;21045;-70
2021/03/06 06:12:44;;;;;;;22.00;20.03;;;-5.00;99.90;;;;;;5039157;28;20486;-69
2021/03/06 06:15:11;;;;;;;23.20;21.13;;;-5.00;99.90;;;;;;5044154;28;20491;-70
2021/03/06 06:17:39;;;;;;;23.73;21.50;;;-5.10;99.90;;;;;;5043660;28;20474;-69
2021/03/06 06:20:07;;;;;;;22.73;20.83;;;-5.10;99.90;;;;;;5041257;28;20923;-70
2021/03/06 06:22:34;;;;;;;25.10;22.60;;;-5.00;99.90;;;;;;5043421;28;20869;-69
2021/03/06 06:25:01;;;;;;;23.17;21.23;;;-5.00;99.90;;;;;;5039899;28;20468;-69
2021/03/06 06:27:29;;;;;;;23.97;21.67;;;-5.00;99.90;;;;;;5040312;28;20850;-70
2021/03/06 06:29:58;;;;;;;23.07;21.07;;;-5.00;99.90;;;;;;5038046;28;20464;-71
2021/03/06 06:32:26;;;;;;;22.50;20.63;;;-5.00;99.90;;;;;;5041962;28;20471;-69
2021/03/06 06:35:01;;;;;;;25.10;22.23;;;-4.90;99.90;;;;;;5041862;28;20463;-70
2021/03/06 06:37:29;;;;;;;26.03;23.30;;;-4.90;99.90;;;;;;5043674;28;20462;-71
2021/03/06 06:39:57;;;;;;;26.10;23.40;;;-4.90;99.90;;;;;;5043804;28;20470;-71
2021/03/06 06:42:32;;;;;;;27.37;24.53;;;-4.90;99.90;;;;;;5039046;28;20457;-71
2021/03/06 06:44:59;;;;;;;24.60;22.33;;;-4.90;99.90;;;;;;5042258;28;20520;-70
2021/03/06 06:47:34;;;;;;;28.57;23.80;;;-4.90;99.90;;;;;;5043635;28;20465;-70
2021/03/06 06:50:01;;;;;;;26.90;24.30;;;-4.90;99.90;;;;;;5039242;28;20484;-71
2021/03/06 06:52:36;;;;;;;26.00;23.70;;;-4.80;99.90;;;;;;5044451;28;20455;-70
2021/03/06 06:55:05;;;;;;;28.20;24.70;;;-4.70;99.90;;;;;;5042456;28;20887;-71
2021/03/06 06:57:31;;;;;;;28.83;26.00;;;-4.70;99.90;;;;;;5038496;28;20470;-68
2021/03/06 06:59:59;;;;;;;27.43;24.73;;;-4.60;99.90;;;;;;5042640;28;20817;-70
2021/03/06 07:02:26;;;;;;;25.63;23.33;;;-4.50;99.90;;;;;;5033072;28;20832;-69
2021/03/06 07:04:55;;;;;;;28.17;24.60;;;-4.30;99.90;;;;;;5043487;28;20818;-71
2021/03/06 07:07:24;;;;;;;26.57;23.70;;;-4.10;99.90;;;;;;5037899;28;20459;-71
2021/03/06 07:10:03;;;;;;;26.63;23.97;;;-4.00;99.90;;;;;;5041595;28;20496;-69
2021/03/06 07:12:33;;;;;;;30.80;24.80;;;-3.90;99.90;;;;;;5041548;28;20491;-70
2021/03/06 07:14:59;;;;;;;33.37;24.83;;;-3.80;99.90;;;;;;5039138;28;20462;-71
2021/03/06 07:17:37;;;;;;;28.53;24.90;;;-3.80;99.90;;;;;;5042539;28;20492;-69
2021/03/06 07:20:06;;;;;;;28.10;25.30;;;-3.70;99.90;;;;;;5039685;28;20983;-70
2021/03/06 07:22:33;;;;;;;26.40;24.03;;;-3.60;99.90;;;;;;5042103;28;20467;-70
2021/03/06 07:25:02;;;;;;;40.03;26.00;;;-3.40;99.90;;;;;;5035942;28;20467;-71
2021/03/06 07:27:28;;;;;;;29.77;24.53;;;-3.40;99.90;;;;;;5033722;28;21056;-70
2021/03/06 07:29:56;;;;;;;27.70;25.07;;;-3.40;99.90;;;;;;5040609;28;20467;-71
2021/03/06 07:32:30;;;;;;;28.57;25.97;;;-3.30;99.90;;;;;;5045181;28;20465;-70
2021/03/06 07:35:01;;;;;;;30.10;26.83;;;-3.20;99.90;;;;;;5045104;28;20491;-71
2021/03/06 07:37:29;;;;;;;28.43;25.80;;;-3.10;99.90;;;;;;5043795;28;20833;-71
2021/03/06 07:39:59;;;;;;;41.87;29.50;;;-3.00;99.90;;;;;;5037244;28;20488;-70
2021/03/06 07:42:30;;;;;;;37.80;29.93;;;-2.90;99.90;;;;;;5040411;28;20474;-70
2021/03/06 07:44:58;;;;;;;36.13;32.13;;;-2.90;99.90;;;;;;5040184;28;20467;-71
2021/03/06 07:47:31;;;;;;;31.03;28.20;;;-2.80;99.90;;;;;;5034816;28;20455;-70
2021/03/06 07:49:59;;;;;;;35.83;32.07;;;-2.70;99.90;;;;;;5043221;28;20467;-71
2021/03/06 07:52:26;;;;;;;44.33;35.33;;;-2.50;99.90;;;;;;5044054;28;20487;-69
2021/03/06 07:54:54;;;;;;;52.13;36.77;;;-2.40;99.90;;;;;;5047023;28;20460;-71
2021/03/06 07:57:21;;;;;;;36.50;32.80;;;-2.30;99.90;;;;;;5034085;28;20554;-69
2021/03/06 07:59:55;;;;;;;44.40;32.03;;;-2.20;99.90;;;;;;5038011;28;20856;-71
2021/03/06 08:02:37;;;;;;;39.93;28.83;;;-2.10;99.90;;;;;;5041532;28;21049;-70
2021/03/06 08:05:27;;;;;;;48.30;28.27;;;-1.90;99.90;;;;;;5043672;28;20891;-70
2021/03/06 08:07:54;;;;;;;39.67;30.07;;;-1.70;99.90;;;;;;5040421;28;20500;-70
2021/03/06 08:10:20;;;;;;;51.87;30.20;;;-1.60;99.90;;;;;;5039036;28;21021;-69
2021/03/06 08:12:46;;;;;;;38.23;30.00;;;-1.40;99.90;;;;;;5037566;28;20487;-70
2021/03/06 08:15:33;;;;;;;33.07;28.67;;;-1.40;99.90;;;;;;5037477;28;20470;-70
2021/03/06 08:18:01;;;;;;;56.73;30.90;;;-1.30;99.90;;;;;;5031060;28;20471;-71
2021/03/06 08:20:30;;;;;;;52.03;31.00;;;-1.10;99.90;;;;;;5047698;28;20492;-69
2021/03/06 08:23:19;;;;;;;38.63;29.17;;;-1.00;99.90;;;;;;5037653;28;20474;-71
2021/03/06 08:25:47;;;;;;;33.07;29.60;;;-1.00;99.90;;;;;;5036791;28;20616;-69
2021/03/06 08:28:24;;;;;;;51.70;30.87;;;-0.90;99.90;;;;;;5039248;28;20869;-70
2021/03/06 08:30:51;;;;;;;44.77;31.10;;;-0.80;99.90;;;;;;5042155;28;20989;-70
2021/03/06 08:33:18;;;;;;;49.60;30.10;;;-0.60;99.90;;;;;;5040082;28;20795;-70
2021/03/06 08:35:45;;;;;;;55.80;30.17;;;-0.50;99.90;;;;;;5043177;28;20483;-71
2021/03/06 08:38:32;;;;;;;32.53;28.17;;;-0.40;99.90;;;;;;5043745;28;20467;-69
2021/03/06 08:40:59;;;;;;;40.67;30.00;;;-0.20;99.90;;;;;;5048568;28;20459;-71
2021/03/06 08:43:25;;;;;;;51.17;29.07;;;0.00;99.90;;;;;;5041520;28;20463;-70
2021/03/06 08:45:53;;;;;;;43.83;28.60;;;0.10;99.90;;;;;;5039607;28;20475;-70
2021/03/06 08:48:24;;;;;;;42.47;29.60;;;0.20;99.90;;;;;;5039892;28;20495;-70
2021/03/06 08:50:51;;;;;;;40.53;31.10;;;0.30;99.90;;;;;;5035856;28;20566;-70
2021/03/06 08:53:17;;;;;;;52.47;32.17;;;0.40;99.90;;;;;;5044253;28;20459;-68
2021/03/06 08:55:45;;;;;;;40.17;31.43;;;0.50;99.90;;;;;;5044902;28;20459;-69
2021/03/06 08:58:13;;;;;;;39.97;30.27;;;0.60;99.90;;;;;;5038731;28;20467;-69
2021/03/06 09:00:42;;;;;;;43.63;32.40;;;0.70;99.90;;;;;;5041221;28;20493;-69
2021/03/06 09:03:13;;;;;;;39.00;32.47;;;0.80;99.90;;;;;;5041704;28;20459;-69
2021/03/06 09:05:41;;;;;;;50.93;32.17;;;0.90;99.90;;;;;;5044937;28;20464;-69
2021/03/06 09:08:08;;;;;;;39.47;29.20;;;1.00;99.90;;;;;;5039266;28;20518;-69
2021/03/06 09:10:38;;;;;;;49.13;32.37;;;1.20;99.90;;;;;;5041034;28;20853;-69
2021/03/06 09:13:07;;;;;;;40.43;30.93;;;1.30;99.90;;;;;;5040523;28;20485;-69
2021/03/06 09:15:42;;;;;;;40.10;31.80;;;1.40;99.90;;;;;;5033531;28;20464;-69
2021/03/06 09:18:09;;;;;;;34.23;30.87;;;1.50;99.90;;;;;;5028946;28;20460;-70
2021/03/06 09:20:46;;;;;;;34.13;30.73;;;1.60;99.90;;;;;;5035049;28;20485;-69
2021/03/06 09:23:29;;;;;;;33.10;29.67;;;1.70;99.90;;;;;;5042626;28;21038;-70
2021/03/06 09:25:56;;;;;;;31.10;28.40;;;1.80;99.90;;;;;;5039284;28;20468;-70
2021/03/06 09:28:28;;;;;;;32.40;29.63;;;2.00;99.90;;;;;;5038270;28;20476;-69
2021/03/06 09:30:55;;;;;;;30.97;28.50;;;2.20;99.90;;;;;;5035864;28;20483;-70
2021/03/06 09:33:30;;;;;;;28.93;26.67;;;2.30;99.90;;;;;;5040921;28;20924;-69
2021/03/06 09:36:00;;;;;;;30.27;27.67;;;2.40;99.90;;;;;;5039323;28;20468;-70
2021/03/06 09:38:27;;;;;;;28.73;26.30;;;2.50;99.90;;;;;;5041160;28;20464;-70
2021/03/06 09:40:54;;;;;;;28.63;26.00;;;2.60;99.90;;;;;;5037266;28;20480;-70
2021/03/06 09:43:32;;;;;;;28.97;26.30;;;2.70;99.90;;;;;;5039569;28;20465;-75
2021/03/06 09:45:59;;;;;;;28.83;26.53;;;2.80;99.90;;;;;;5038810;28;20551;-72
2021/03/06 09:48:27;;;;;;;29.40;26.80;;;2.80;99.90;;;;;;5034996;28;20487;-70
2021/03/06 09:50:56;;;;;;;28.00;25.17;;;3.00;99.90;;;;;;5044562;28;20463;-69
2021/03/06 09:53:25;;;;;;;28.03;25.57;;;3.20;99.90;;;;;;5040085;28;20478;-70
2021/03/06 09:56:11;;;;;;;27.37;24.97;;;3.40;99.90;;;;;;5041888;28;20554;-71
2021/03/06 09:58:39;;;;;;;28.23;26.00;;;3.50;99.90;;;;;;5028098;28;20463;-71
2021/03/06 10:01:20;;;;;;;28.47;25.73;;;3.70;99.90;;;;;;5038974;28;20464;-72
2021/03/06 10:03:47;;;;;;;27.67;25.10;;;3.80;99.90;;;;;;5033560;28;20814;-75
2021/03/06 10:06:16;;;;;;;28.23;25.73;;;4.00;99.90;;;;;;5034713;28;20853;-70
2021/03/06 10:08:50;;;;;;;27.80;25.70;;;4.20;99.90;;;;;;5035575;28;20491;-71
2021/03/06 10:11:17;;;;;;;27.43;25.33;;;4.70;99.90;;;;;;5028132;28;21018;-71
2021/03/06 10:13:45;;;;;;;26.57;24.50;;;5.60;99.90;;;;;;5039658;28;20466;-75
2021/03/06 10:16:11;;;;;;;25.47;23.47;;;6.40;99.90;;;;;;5027587;28;21046;-73
2021/03/06 10:18:40;;;;;;;24.17;22.20;;;6.50;99.90;;;;;;5033299;28;20463;-77
2021/03/06 10:21:15;;;;;;;22.90;20.93;;;7.10;99.90;;;;;;5031546;28;20496;-74
2021/03/06 10:23:42;;;;;;;21.47;20.03;;;7.60;99.90;;;;;;5037332;28;20506;-72
2021/03/06 10:26:21;;;;;;;21.63;19.93;;;7.90;99.90;;;;;;5037089;28;20473;-72
2021/03/06 10:28:48;;;;;;;21.87;20.10;;;9.10;99.90;;;;;;5025714;28;20490;-75
2021/03/06 10:31:54;;;;;;;21.17;19.73;;;9.00;99.90;;;;;;5031401;28;20481;-73
2021/03/06 10:34:25;;;;;;;19.50;18.20;;;9.10;99.90;;;;;;4990245;28;20461;-72
2021/03/06 10:37:13;;;;;;;19.00;17.80;;;10.00;99.90;;;;;;4989816;28;20459;-78
2021/03/06 10:40:00;;;;;;;19.50;18.20;;;10.10;99.90;;;;;;5018047;28;20464;-74
2021/03/06 10:42:42;;;;;;;19.90;18.70;;;10.80;99.80;;;;;;5031183;28;20510;-72
2021/03/06 10:45:10;;;;;;;18.77;17.67;;;11.50;98.90;;;;;;5032420;28;20471;-72
2021/03/06 10:47:47;;;;;;;17.87;16.67;;;11.40;97.30;;;;;;5030965;28;20559;-72
2021/03/06 10:50:25;;;;;;;19.73;18.33;;;11.80;96.20;;;;;;5029566;28;20513;-78
2021/03/06 10:52:53;;;;;;;18.53;16.90;;;12.40;93.70;;;;;;5036982;28;20870;-72
2021/03/06 10:55:34;;;;;;;18.70;17.57;;;12.40;92.80;;;;;;5031840;28;20543;-72
2021/03/06 10:58:01;;;;;;;19.30;18.00;;;11.60;91.60;;;;;;5024897;28;20502;-74
2021/03/06 11:00:27;;;;;;;18.87;17.80;;;10.90;90.90;;;;;;5031183;28;20464;-71
2021/03/06 11:02:58;;;;;;;18.53;17.40;;;10.90;92.00;;;;;;5028531;28;20830;-72
2021/03/06 11:05:26;;;;;;;19.73;18.43;;;10.10;88.40;;;;;;5036476;28;20991;-72
2021/03/06 11:07:53;;;;;;;19.80;18.50;;;10.10;90.50;;;;;;5025264;28;20468;-72
2021/03/06 11:10:22;;;;;;;18.97;17.80;;;11.10;90.80;;;;;;5028759;28;20464;-72
2021/03/06 11:12:53;;;;;;;18.80;17.70;;;11.30;87.10;;;;;;5031846;28;20487;-74
2021/03/06 11:15:27;;;;;;;19.63;18.50;;;10.20;89.80;;;;;;5031821;28;20862;-74
2021/03/06 11:17:55;;;;;;;19.87;18.60;;;10.30;90.50;;;;;;5028149;28;20481;-74
2021/03/06 11:20:23;;;;;;;19.50;18.10;;;10.90;91.60;;;;;;5029800;28;20492;-72
2021/03/06 11:22:50;;;;;;;19.57;18.33;;;11.80;92.40;;;;;;5034671;28;20473;-72
2021/03/06 11:25:17;;;;;;;20.23;18.40;;;11.80;88.70;;;;;;5029654;28;20471;-76
2021/03/06 11:27:49;;;;;;;21.00;19.57;;;11.40;90.00;;;;;;5034248;28;20487;-73
2021/03/06 11:30:18;;;;;;;20.70;19.20;;;10.90;90.80;;;;;;5030792;28;20488;-72
2021/03/06 11:32:46;;;;;;;21.60;19.93;;;10.50;90.20;;;;;;5029417;28;20464;-72
2021/03/06 11:35:13;;;;;;;20.10;18.70;;;10.30;91.10;;;;;;5041412;28;20819;-72
2021/03/06 11:37:40;;;;;;;19.97;18.70;;;10.50;90.90;;;;;;5031704;28;20830;-72
2021/03/06 11:40:08;;;;;;;20.43;18.93;;;11.10;89.70;;;;;;5029058;28;20759;-75
2021/03/06 11:42:34;;;;;;;19.40;18.10;;;11.10;89.40;;;;;;5038522;28;20485;-72
2021/03/06 11:45:00;;;;;;;19.50;18.10;;;11.50;88.80;;;;;;5033325;28;20960;-71
2021/03/06 11:47:27;;;;;;;19.60;17.90;;;11.90;90.10;;;;;;5026929;28;20494;-72
2021/03/06 11:49:54;;;;;;;18.70;17.40;;;13.30;86.20;;;;;;5031561;28;20554;-72
2021/03/06 11:52:21;;;;;;;19.73;18.07;;;13.30;83.10;;;;;;5029915;28;20838;-74
2021/03/06 11:54:47;;;;;;;18.97;17.57;;;12.70;83.30;;;;;;5031723;28;20939;-73
2021/03/06 11:57:14;;;;;;;18.63;17.47;;;12.40;80.20;;;;;;5029059;28;20465;-72
2021/03/06 11:59:41;;;;;;;17.87;16.53;;;13.00;82.10;;;;;;5035942;28;20958;-72
2021/03/06 12:02:08;;;;;;;17.47;16.40;;;13.30;80.10;;;;;;5023102;28;20473;-74
2021/03/06 12:04:34;;;;;;;17.83;16.70;;;13.60;79.10;;;;;;5029504;28;20468;-72
2021/03/06 12:07:02;;;;;;;19.23;17.70;;;14.30;77.40;;;;;;5029365;28;20475;-71
2021/03/06 12:09:28;;;;;;;18.60;17.17;;;14.80;77.00;;;;;;5029046;28;20522;-72
2021/03/06 12:11:54;;;;;;;16.60;15.70;;;13.80;77.10;;;;;;5033101;28;20632;-72
2021/03/06 12:14:21;;;;;;;18.50;17.50;;;14.00;73.30;;;;;;5031904;28;20472;-75
2021/03/06 12:16:47;;;;;;;17.90;16.90;;;13.90;72.10;;;;;;5036463;28;20463;-74
2021/03/06 12:19:14;;;;;;;17.70;16.47;;;13.80;71.80;;;;;;5031826;28;21099;-73
2021/03/06 12:21:40;;;;;;;18.47;16.80;;;14.40;71.20;;;;;;5030180;28;20492;-72
2021/03/06 12:24:09;;;;;;;18.57;17.57;;;13.50;71.00;;;;;;5034088;28;21058;-72
2021/03/06 12:26:35;;;;;;;16.70;15.70;;;13.60;70.00;;;;;;5027770;28;21003;-72
2021/03/06 12:29:02;;;;;;;17.93;16.80;;;13.30;68.60;;;;;;5037380;28;20499;-72
2021/03/06 12:31:28;;;;;;;17.90;16.17;;;13.30;68.80;;;;;;5035673;28;20468;-74
2021/03/06 12:33:54;;;;;;;16.97;15.90;;;13.80;66.50;;;;;;5034821;28;20958;-72
2021/03/06 12:36:21;;;;;;;15.93;15.13;;;14.30;69.10;;;;;;5034101;28;20859;-72
2021/03/06 12:38:48;;;;;;;16.20;15.27;;;14.50;70.10;;;;;;5033590;28;20551;-73